createdAt,value
2022-08-20T00:00:40.864Z,10.73
2022-08-20T00:03:16.968Z,12.18
2022-08-20T00:05:55.976Z,12.18
2022-08-20T00:08:24.150Z,12.27
2022-08-20T00:10:55.610Z,12.02
2022-08-20T00:13:36.654Z,13.23
2022-08-20T00:16:04.207Z,12.73
2022-08-20T00:18:30.707Z,13.00
2022-08-20T00:20:58.119Z,14.52
2022-08-20T00:23:25.493Z,13.50
2022-08-20T00:25:53.130Z,16.55
2022-08-20T00:28:19.963Z,14.57
2022-08-20T00:30:47.475Z,16.02
2022-08-20T00:33:19.068Z,22.92
2022-08-20T00:35:49.592Z,16.50
2022-08-20T00:38:16.405Z,17.30
2022-08-20T00:41:01.351Z,18.10
2022-08-20T00:43:36.376Z,19.63
2022-08-20T00:46:07.794Z,19.17
2022-08-20T00:48:36.844Z,23.45
2022-08-20T00:51:30.003Z,19.55
2022-08-20T00:54:02.691Z,17.75
2022-08-20T00:56:33.918Z,17.85
2022-08-20T00:59:02.014Z,20.58
2022-08-20T01:01:29.454Z,24.63
2022-08-20T01:03:56.601Z,19.88
2022-08-20T01:06:25.197Z,19.85
2022-08-20T01:08:52.646Z,18.60
2022-08-20T01:11:22.761Z,20.17
2022-08-20T01:13:49.820Z,22.55
2022-08-20T01:16:23.836Z,19.63
2022-08-20T01:18:51.844Z,23.95
2022-08-20T01:21:32.226Z,22.23
2022-08-20T01:24:17.135Z,21.73
2022-08-20T01:26:45.839Z,24.73
2022-08-20T01:29:16.268Z,21.75
2022-08-20T01:31:43.594Z,24.48
2022-08-20T01:34:13.587Z,23.38
2022-08-20T01:36:53.064Z,21.70
2022-08-20T01:39:26.589Z,21.38
2022-08-20T01:42:20.907Z,21.15
2022-08-20T01:44:47.680Z,17.02
2022-08-20T01:47:20.354Z,13.80
2022-08-20T01:49:52.059Z,10.50
2022-08-20T01:52:43.612Z,9.48
2022-08-20T01:55:10.917Z,8.70
2022-08-20T01:57:38.898Z,7.70
2022-08-20T02:00:10.981Z,6.40
2022-08-20T02:02:45.882Z,8.27
2022-08-20T02:05:12.416Z,5.20
2022-08-20T02:07:39.208Z,7.13
2022-08-20T02:10:08.860Z,8.07
2022-08-20T02:12:35.597Z,4.22
2022-08-20T02:15:02.941Z,5.40
2022-08-20T02:17:30.301Z,2.65
2022-08-20T02:20:06.301Z,2.88
2022-08-20T02:22:53.653Z,4.43
2022-08-20T02:25:25.166Z,3.55
2022-08-20T02:27:54.244Z,4.90
2022-08-20T02:30:33.846Z,5.13
2022-08-20T02:33:03.454Z,9.00
2022-08-20T02:39:26.618Z,5.57
2022-08-20T02:42:22.134Z,4.97
2022-08-20T02:44:51.628Z,4.60
2022-08-20T02:47:37.286Z,6.00
2022-08-20T02:50:08.155Z,5.65
2022-08-20T02:52:41.590Z,6.65
2022-08-20T02:55:25.938Z,7.10
2022-08-20T02:57:58.547Z,8.43
2022-08-20T03:00:27.281Z,10.77
2022-08-20T03:02:53.899Z,9.15
2022-08-20T03:05:20.581Z,7.65
2022-08-20T03:07:50.351Z,7.43
2022-08-20T03:10:17.121Z,9.05
2022-08-20T03:12:43.644Z,9.40
2022-08-20T03:15:17.210Z,7.20
2022-08-20T03:17:44.777Z,9.25
2022-08-20T03:20:12.089Z,7.60
2022-08-20T03:22:38.773Z,11.30
2022-08-20T03:25:05.680Z,7.63
2022-08-20T03:27:36.451Z,9.07
2022-08-20T03:30:06.899Z,7.80
2022-08-20T03:32:33.554Z,11.85
2022-08-20T03:35:00.262Z,9.95
2022-08-20T03:37:33.529Z,9.93
2022-08-20T03:40:00.872Z,9.02
2022-08-20T03:42:27.655Z,9.77
2022-08-20T03:44:58.978Z,11.82
2022-08-20T03:47:26.904Z,9.50
2022-08-20T03:50:02.071Z,9.55
2022-08-20T03:52:29.434Z,9.88
2022-08-20T03:54:56.897Z,10.73
2022-08-20T03:57:23.593Z,8.88
2022-08-20T03:59:54.698Z,12.10
2022-08-20T04:02:25.546Z,11.77
2022-08-20T04:04:52.128Z,10.20
2022-08-20T04:07:25.951Z,9.30
2022-08-20T04:09:54.751Z,12.15
2022-08-20T04:12:22.697Z,14.50
2022-08-20T04:14:50.223Z,13.82
2022-08-20T04:17:18.925Z,16.45
2022-08-20T04:19:47.403Z,16.38
2022-08-20T04:22:14.359Z,17.13
2022-08-20T04:24:43.089Z,17.85
2022-08-20T04:27:10.964Z,18.10
2022-08-20T04:29:42.994Z,17.48
2022-08-20T04:32:09.672Z,20.35
2022-08-20T04:34:36.891Z,19.17
2022-08-20T04:37:04.650Z,20.40
2022-08-20T04:39:31.333Z,22.13
2022-08-20T04:41:57.915Z,18.92
2022-08-20T04:44:24.472Z,19.70
2022-08-20T04:46:50.973Z,22.35
2022-08-20T04:49:17.494Z,20.98
2022-08-20T04:51:43.988Z,22.27
2022-08-20T04:54:11.695Z,22.20
2022-08-20T04:56:39.586Z,21.55
2022-08-20T04:59:07.519Z,23.08
2022-08-20T05:01:35.726Z,25.17
2022-08-20T05:04:02.369Z,20.58
2022-08-20T05:06:31.580Z,20.38
2022-08-20T05:08:59.958Z,22.05
2022-08-20T05:15:39.531Z,16.55
2022-08-20T05:18:07.920Z,19.83
2022-08-20T05:20:41.183Z,18.88
2022-08-20T05:23:10.585Z,19.90
2022-08-20T05:25:39.176Z,23.33
2022-08-20T05:30:37.862Z,17.73
2022-08-20T05:33:06.414Z,16.30
2022-08-20T05:35:35.852Z,19.23
2022-08-20T05:38:02.716Z,20.90
2022-08-20T05:40:29.353Z,18.23
2022-08-20T05:42:56.030Z,17.75
2022-08-20T05:45:23.411Z,17.83
2022-08-20T05:47:56.389Z,16.50
2022-08-20T05:50:23.632Z,16.83
2022-08-20T05:52:50.427Z,17.30
2022-08-20T05:55:16.950Z,17.92
2022-08-20T05:57:43.459Z,14.32
2022-08-20T06:00:13.251Z,16.63
2022-08-20T06:03:15.657Z,25.88
2022-08-20T06:05:42.227Z,17.80
2022-08-20T06:08:10.080Z,14.88
2022-08-20T06:10:37.949Z,18.52
2022-08-20T06:13:06.969Z,18.13
2022-08-20T06:15:34.704Z,15.73
2022-08-20T06:18:10.118Z,17.13
2022-08-20T06:20:53.097Z,15.00
2022-08-20T06:23:20.646Z,13.30
2022-08-20T06:25:49.983Z,14.93
2022-08-20T06:28:16.998Z,13.38
2022-08-20T06:30:43.563Z,14.05
2022-08-20T06:33:10.156Z,14.30
2022-08-20T06:35:37.811Z,13.85
2022-08-20T06:38:05.862Z,15.47
2022-08-20T06:40:34.136Z,12.93
2022-08-20T06:43:01.050Z,17.17
2022-08-20T06:45:31.868Z,15.43
2022-08-20T06:48:02.150Z,14.65
2022-08-20T06:50:43.217Z,12.77
2022-08-20T06:53:18.510Z,15.65
2022-08-20T06:55:49.191Z,13.50
2022-08-20T06:58:37.781Z,14.95
2022-08-20T07:01:09.885Z,16.90
2022-08-20T07:03:38.304Z,13.50
2022-08-20T07:06:06.165Z,13.40
2022-08-20T07:08:33.312Z,13.20
2022-08-20T07:10:59.915Z,15.90
2022-08-20T07:13:26.447Z,13.63
2022-08-20T07:19:29.330Z,12.18
2022-08-20T07:24:57.687Z,11.23
2022-08-20T07:27:24.426Z,14.68
2022-08-20T07:30:12.899Z,12.50
2022-08-20T07:32:45.411Z,11.00
2022-08-20T07:35:14.704Z,11.10
2022-08-20T07:37:48.417Z,13.18
2022-08-20T07:40:42.362Z,13.23
2022-08-20T07:43:10.786Z,11.38
2022-08-20T07:45:38.168Z,13.30
2022-08-20T07:48:09.841Z,14.20
2022-08-20T07:50:36.346Z,13.02
2022-08-20T07:53:02.841Z,13.52
2022-08-20T07:55:30.432Z,13.77
2022-08-20T07:57:59.128Z,13.47
2022-08-20T08:00:26.810Z,15.68
2022-08-20T08:02:53.304Z,12.23
2022-08-20T08:05:19.988Z,11.25
2022-08-20T08:07:46.681Z,11.80
2022-08-20T08:10:21.992Z,13.55
2022-08-20T08:12:55.700Z,11.15
2022-08-20T08:15:26.211Z,11.23
2022-08-20T08:17:55.461Z,13.68
2022-08-20T08:20:23.241Z,13.57
2022-08-20T08:22:50.863Z,14.60
2022-08-20T08:25:17.618Z,15.03
2022-08-20T08:27:45.696Z,17.27
2022-08-20T08:30:13.533Z,16.77
2022-08-20T08:33:02.872Z,15.77
2022-08-20T08:35:32.621Z,16.20
2022-08-20T08:38:02.193Z,17.67
2022-08-20T08:40:31.175Z,21.13
2022-08-20T08:43:01.020Z,12.73
2022-08-20T08:45:33.233Z,12.43
2022-08-20T08:48:00.108Z,13.52
2022-08-20T08:50:52.900Z,12.52
2022-08-20T08:53:27.752Z,10.50
2022-08-20T08:55:54.630Z,11.40
2022-08-20T08:58:21.206Z,13.05
2022-08-20T09:00:56.039Z,12.15
2022-08-20T09:03:31.239Z,11.20
2022-08-20T09:06:00.874Z,14.13
2022-08-20T09:08:33.397Z,11.98
2022-08-20T09:11:06.239Z,12.68
2022-08-20T09:13:33.149Z,11.50
2022-08-20T09:15:59.890Z,12.00
2022-08-20T09:18:26.788Z,11.98
2022-08-20T09:20:53.376Z,10.57
2022-08-20T09:23:20.008Z,8.65
2022-08-20T09:25:46.589Z,8.60
2022-08-20T09:28:13.126Z,11.70
2022-08-20T09:30:40.803Z,11.50
2022-08-20T09:33:08.820Z,10.55
2022-08-20T09:35:35.319Z,13.25
2022-08-20T09:38:02.102Z,13.43
2022-08-20T09:40:28.591Z,16.02
2022-08-20T09:42:55.203Z,17.08
2022-08-20T09:45:22.210Z,15.63
2022-08-20T09:47:56.640Z,17.98
2022-08-20T09:50:25.985Z,15.15
2022-08-20T09:52:54.793Z,16.30
2022-08-20T09:55:42.536Z,16.23
2022-08-20T09:58:21.188Z,16.10
2022-08-20T10:00:48.390Z,19.67
2022-08-20T10:03:15.423Z,15.85
2022-08-20T10:05:41.930Z,20.42
2022-08-20T10:08:10.289Z,15.63
2022-08-20T10:10:37.268Z,16.38
2022-08-20T10:13:03.849Z,17.20
2022-08-20T10:15:31.539Z,19.52
2022-08-20T10:17:58.308Z,15.93
2022-08-20T10:20:26.048Z,12.82
2022-08-20T10:22:52.570Z,10.23
2022-08-20T10:25:19.615Z,10.27
2022-08-20T10:27:46.246Z,14.48
2022-08-20T10:30:13.045Z,12.32
2022-08-20T10:32:39.826Z,13.88
2022-08-20T10:35:06.523Z,14.00
2022-08-20T10:37:34.710Z,12.65
2022-08-20T10:40:01.262Z,11.05
2022-08-20T10:42:27.883Z,11.68
2022-08-20T10:44:54.375Z,9.65
2022-08-20T10:47:26.765Z,9.40
2022-08-20T10:49:55.300Z,9.13
2022-08-20T10:52:22.933Z,10.57
2022-08-20T10:54:49.979Z,8.77
2022-08-20T10:57:21.974Z,9.88
2022-08-20T10:59:50.183Z,9.88
2022-08-20T11:02:17.545Z,9.27
2022-08-20T11:04:44.886Z,8.63
2022-08-20T11:07:16.263Z,8.35
2022-08-20T11:09:44.233Z,10.38
2022-08-20T11:12:11.356Z,9.40
2022-08-20T11:14:38.081Z,10.18
2022-08-20T11:17:05.705Z,13.25
2022-08-20T11:19:32.537Z,12.03
2022-08-20T11:21:59.088Z,14.07
2022-08-20T11:24:25.598Z,12.73
2022-08-20T11:26:53.361Z,11.43
2022-08-20T11:29:22.281Z,12.23
2022-08-20T11:31:49.120Z,13.38
2022-08-20T11:34:15.726Z,12.43
2022-08-20T11:36:43.759Z,11.68
2022-08-20T11:39:10.295Z,14.55
2022-08-20T11:41:36.808Z,13.32
2022-08-20T11:44:20.043Z,16.77
2022-08-20T11:46:48.167Z,13.52
2022-08-20T11:49:14.699Z,13.13
2022-08-20T11:51:49.643Z,15.68
2022-08-20T11:54:16.881Z,15.63
2022-08-20T11:56:45.879Z,17.58
2022-08-20T11:59:13.602Z,17.13
2022-08-20T12:01:40.092Z,18.50
2022-08-20T12:04:06.731Z,16.75
2022-08-20T12:06:33.731Z,25.38
2022-08-20T12:09:00.591Z,24.98
2022-08-20T12:11:27.411Z,25.33
2022-08-20T12:13:53.939Z,27.13
2022-08-20T12:16:20.513Z,28.65
2022-08-20T12:18:48.165Z,28.92
2022-08-20T12:21:14.969Z,34.88
2022-08-20T12:23:41.611Z,35.33
2022-08-20T12:26:08.260Z,33.55
2022-08-20T12:28:34.805Z,36.28
2022-08-20T12:31:01.302Z,31.40
2022-08-20T12:33:27.803Z,29.10
2022-08-20T12:35:54.279Z,32.75
2022-08-20T12:38:20.976Z,27.63
2022-08-20T12:40:47.511Z,29.58
2022-08-20T12:43:14.084Z,27.35
2022-08-20T12:45:40.827Z,26.48
2022-08-20T12:48:10.863Z,27.98
2022-08-20T12:50:39.499Z,25.50
2022-08-20T12:53:06.783Z,24.50
2022-08-20T12:55:34.681Z,23.48
2022-08-20T12:58:03.609Z,26.67
2022-08-20T13:00:37.758Z,16.35
2022-08-20T13:03:06.300Z,13.23
2022-08-20T13:05:34.258Z,7.32
2022-08-20T13:08:01.308Z,8.98
2022-08-20T13:10:31.890Z,7.15
2022-08-20T13:12:59.699Z,8.05
2022-08-20T13:15:26.222Z,6.07
2022-08-20T13:17:59.104Z,10.00
2022-08-20T13:20:31.749Z,10.02
2022-08-20T13:23:03.383Z,9.55
2022-08-20T13:25:30.294Z,8.02
2022-08-20T13:28:00.568Z,8.90
2022-08-20T13:30:27.577Z,8.73
2022-08-20T13:32:54.146Z,7.93
2022-08-20T13:35:21.553Z,7.35
2022-08-20T13:37:49.191Z,8.77
2022-08-20T13:40:16.582Z,7.90
2022-08-20T13:42:43.353Z,6.63
2022-08-20T13:45:10.815Z,6.40
2022-08-20T13:47:39.855Z,7.50
2022-08-20T13:50:10.770Z,7.63
2022-08-20T13:52:38.068Z,7.45
2022-08-20T13:55:07.112Z,8.30
2022-08-20T13:57:34.187Z,9.88
2022-08-20T14:00:00.798Z,7.57
2022-08-20T14:02:27.599Z,7.78
2022-08-20T14:04:54.321Z,5.90
2022-08-20T14:07:31.647Z,5.00
2022-08-20T14:12:28.003Z,6.28
2022-08-20T14:14:57.354Z,7.57
2022-08-20T14:17:30.242Z,5.82
2022-08-20T14:20:01.325Z,5.78
2022-08-20T14:22:28.971Z,5.60
2022-08-20T14:24:56.379Z,6.53
2022-08-20T14:27:26.559Z,3.45
2022-08-20T14:29:57.367Z,11.23
2022-08-20T14:32:23.844Z,6.78
2022-08-20T14:34:50.362Z,3.75
2022-08-20T14:37:20.182Z,7.15
2022-08-20T14:39:49.174Z,8.48
2022-08-20T14:42:16.452Z,8.50
2022-08-20T14:44:43.579Z,9.00
2022-08-20T14:47:19.587Z,5.65
2022-08-20T14:49:48.373Z,7.25
2022-08-20T14:52:16.636Z,5.45
2022-08-20T14:54:43.583Z,5.78
2022-08-20T14:57:13.346Z,5.00
2022-08-20T14:59:41.274Z,8.15
2022-08-20T15:02:10.868Z,8.73
2022-08-20T15:04:37.669Z,7.88
2022-08-20T15:07:08.139Z,7.72
2022-08-20T15:09:40.121Z,6.00
2022-08-20T15:12:06.812Z,5.80
2022-08-20T15:14:33.315Z,5.57
2022-08-20T15:17:00.117Z,7.35
2022-08-20T15:19:26.609Z,6.45
2022-08-20T15:21:53.185Z,5.88
2022-08-20T15:24:19.775Z,5.50
2022-08-20T15:26:46.728Z,6.25
2022-08-20T15:29:22.601Z,7.65
2022-08-20T15:31:49.650Z,9.57
2022-08-20T15:34:17.610Z,12.90
2022-08-20T15:36:44.930Z,7.07
2022-08-20T15:39:11.506Z,9.82
2022-08-20T15:41:38.054Z,7.90
2022-08-20T15:44:04.890Z,5.97
2022-08-20T15:46:36.012Z,5.70
2022-08-20T15:49:11.335Z,9.82
2022-08-20T15:51:49.244Z,9.00
2022-08-20T15:54:23.695Z,8.95
2022-08-20T15:57:07.135Z,5.18
2022-08-20T15:59:36.636Z,6.10
2022-08-20T16:02:29.329Z,11.05
2022-08-20T16:05:19.300Z,10.10
2022-08-20T16:08:16.840Z,5.75
2022-08-20T16:10:55.505Z,7.90
2022-08-20T16:13:28.111Z,9.35
2022-08-20T16:15:56.796Z,9.95
2022-08-20T16:18:27.626Z,4.75
2022-08-20T16:20:55.300Z,8.60
2022-08-20T16:23:29.357Z,6.82
2022-08-20T16:26:13.416Z,9.18
2022-08-20T16:28:52.828Z,5.07
2022-08-20T16:31:24.175Z,4.95
2022-08-20T16:33:54.679Z,13.20
2022-08-20T16:36:39.264Z,13.52
2022-08-20T16:39:20.645Z,8.20
2022-08-20T16:41:51.036Z,7.45
2022-08-20T16:44:34.348Z,7.25
2022-08-20T16:47:22.417Z,6.20
2022-08-20T16:49:57.697Z,5.65
2022-08-20T16:52:24.471Z,6.38
2022-08-20T16:54:51.029Z,9.55
2022-08-20T16:57:18.750Z,6.38
2022-08-20T17:00:10.016Z,6.30
2022-08-20T17:03:14.479Z,10.20
2022-08-20T17:05:50.803Z,11.15
2022-08-20T17:08:29.027Z,6.68
2022-08-20T17:11:10.833Z,8.95
2022-08-20T17:13:40.962Z,7.53
2022-08-20T17:16:13.420Z,7.90
2022-08-20T17:18:43.013Z,9.88
2022-08-20T17:21:23.243Z,8.70
2022-08-20T17:23:58.760Z,8.70
2022-08-20T17:26:31.145Z,7.05
2022-08-20T17:29:00.540Z,10.95
2022-08-20T17:31:38.735Z,9.68
2022-08-20T17:34:12.729Z,8.13
2022-08-20T17:36:49.523Z,7.65
2022-08-20T17:39:18.904Z,9.70
2022-08-20T17:41:51.901Z,8.20
2022-08-20T17:44:29.900Z,6.60
2022-08-20T17:46:58.944Z,6.38
2022-08-20T17:49:57.321Z,13.07
2022-08-20T17:52:47.205Z,5.40
2022-08-20T17:55:13.934Z,10.57
2022-08-20T17:57:52.814Z,9.82
2022-08-20T18:00:24.177Z,9.77
2022-08-20T18:02:54.090Z,12.27
2022-08-20T18:05:21.580Z,10.38
2022-08-20T18:08:06.836Z,12.02
2022-08-20T18:10:42.717Z,7.82
2022-08-20T18:13:12.201Z,9.98
2022-08-20T18:15:46.850Z,9.90
2022-08-20T18:18:28.208Z,6.88
2022-08-20T18:21:19.832Z,11.18
2022-08-20T18:24:09.738Z,9.60
2022-08-20T18:26:46.742Z,8.88
2022-08-20T18:29:22.114Z,9.48
2022-08-20T18:31:54.610Z,9.95
2022-08-20T18:34:35.674Z,7.53
2022-08-20T18:37:20.059Z,6.85
2022-08-20T18:39:48.851Z,12.82
2022-08-20T18:42:24.728Z,6.55
2022-08-20T18:44:53.308Z,10.88
2022-08-20T18:47:35.058Z,10.55
2022-08-20T18:50:40.101Z,8.43
2022-08-20T18:53:32.971Z,13.95
2022-08-20T18:56:13.581Z,13.45
2022-08-20T18:59:03.605Z,11.25
2022-08-20T19:01:34.384Z,9.45
2022-08-20T19:04:01.869Z,9.95
2022-08-20T19:06:28.324Z,8.95
2022-08-20T19:09:03.896Z,10.77
2022-08-20T19:11:59.159Z,8.45
2022-08-20T19:14:52.526Z,12.27
2022-08-20T19:17:40.688Z,7.68
2022-08-20T19:20:13.807Z,11.30
2022-08-20T19:22:42.589Z,7.95
2022-08-20T19:25:24.684Z,11.07
2022-08-20T19:27:51.865Z,9.38
2022-08-20T19:30:36.423Z,9.40
2022-08-20T19:33:03.450Z,14.52
2022-08-20T19:35:30.251Z,12.68
2022-08-20T19:37:56.798Z,13.93
2022-08-20T19:40:31.200Z,13.10
2022-08-20T19:43:02.419Z,9.77
2022-08-20T19:45:37.838Z,17.58
2022-08-20T19:48:27.444Z,10.93
2022-08-20T19:51:05.409Z,11.48
2022-08-20T19:53:34.802Z,18.42
2022-08-20T19:56:14.364Z,16.05
2022-08-20T19:58:41.677Z,16.42
2022-08-20T20:01:18.788Z,15.80
2022-08-20T20:04:05.144Z,11.38
2022-08-20T20:06:36.283Z,13.20
2022-08-20T20:09:14.859Z,15.85
2022-08-20T20:11:46.051Z,10.88
2022-08-20T20:14:14.983Z,8.13
2022-08-20T20:16:42.568Z,9.90
2022-08-20T20:19:27.727Z,7.97
2022-08-20T20:22:19.181Z,7.43
2022-08-20T20:24:49.971Z,13.02
2022-08-20T20:27:23.874Z,8.15
2022-08-20T20:30:18.063Z,10.57
2022-08-20T20:32:50.006Z,10.45
2022-08-20T20:35:28.188Z,13.27
2022-08-20T20:38:09.505Z,14.27
2022-08-20T20:40:49.482Z,9.18
2022-08-20T20:43:41.347Z,12.13
2022-08-20T20:46:21.330Z,14.60
2022-08-20T20:48:55.530Z,12.30
2022-08-20T20:51:26.312Z,11.02
2022-08-20T20:53:55.365Z,9.55
2022-08-20T20:56:32.196Z,9.95
2022-08-20T20:59:05.316Z,10.32
2022-08-20T21:01:48.184Z,15.93
2022-08-20T21:04:16.911Z,10.07
2022-08-20T21:06:43.690Z,10.50
2022-08-20T21:09:10.183Z,10.95
2022-08-20T21:11:36.719Z,10.27
2022-08-20T21:14:03.346Z,8.88
2022-08-20T21:16:30.139Z,10.20
2022-08-20T21:18:58.280Z,9.10
2022-08-20T21:21:25.038Z,11.50
2022-08-20T21:23:51.507Z,12.43
2022-08-20T21:26:18.688Z,12.45
2022-08-20T21:28:45.402Z,12.07
2022-08-20T21:31:12.175Z,12.88
2022-08-20T21:33:38.851Z,8.93
2022-08-20T21:36:06.354Z,10.52
2022-08-20T21:38:32.849Z,12.85
2022-08-20T21:40:59.411Z,11.45
2022-08-20T21:43:26.632Z,10.00
2022-08-20T21:45:53.252Z,12.48
2022-08-20T21:48:20.203Z,9.93
2022-08-20T21:50:46.695Z,10.90
2022-08-20T21:53:13.386Z,13.40
2022-08-20T21:55:40.726Z,16.55
2022-08-20T21:58:07.661Z,12.73
2022-08-20T22:00:55.258Z,10.40
2022-08-20T22:03:24.703Z,11.43
2022-08-20T22:05:52.283Z,11.35
2022-08-20T22:08:20.271Z,12.88
2022-08-20T22:10:47.138Z,12.18
2022-08-20T22:13:14.747Z,11.90
2022-08-20T22:15:41.742Z,12.10
2022-08-20T22:18:08.582Z,8.25
2022-08-20T22:20:35.298Z,8.65
2022-08-20T22:23:04.444Z,9.75
2022-08-20T22:25:31.039Z,7.85
2022-08-20T22:27:57.544Z,9.25
2022-08-20T22:30:24.215Z,10.43
2022-08-20T22:32:51.831Z,9.95
2022-08-20T22:35:19.289Z,13.15
2022-08-20T22:37:46.035Z,9.23
2022-08-20T22:40:12.646Z,10.30
2022-08-20T22:42:39.191Z,8.75
2022-08-20T22:45:12.311Z,12.77
2022-08-20T22:47:43.133Z,8.65
2022-08-20T22:50:12.026Z,21.17
2022-08-20T22:52:40.141Z,14.00
2022-08-20T22:55:07.674Z,12.52
2022-08-20T22:57:36.146Z,12.82
2022-08-20T23:00:02.992Z,12.77
2022-08-20T23:02:29.580Z,15.23
2022-08-20T23:04:56.230Z,12.30
2022-08-20T23:07:22.850Z,16.75
2022-08-20T23:09:49.639Z,12.90
2022-08-20T23:12:16.180Z,13.13
2022-08-20T23:14:42.709Z,14.75
2022-08-20T23:17:14.937Z,12.13
2022-08-20T23:19:42.065Z,15.13
2022-08-20T23:22:08.671Z,9.02
2022-08-20T23:24:35.464Z,11.13
2022-08-20T23:27:02.441Z,11.07
2022-08-20T23:29:29.187Z,11.38
2022-08-20T23:31:56.785Z,11.18
2022-08-20T23:34:24.100Z,11.10
2022-08-20T23:36:52.370Z,7.97
2022-08-20T23:39:19.574Z,10.10
2022-08-20T23:41:47.955Z,12.32
2022-08-20T23:46:52.440Z,14.43
2022-08-20T23:49:21.445Z,15.63
2022-08-20T23:51:47.935Z,10.55
2022-08-20T23:54:14.471Z,9.77
2022-08-20T23:56:40.978Z,13.73
2022-08-20T23:59:07.536Z,15.18
